< Typhoon 196603 1966 Season Typhoon 196605 >
Typhoon 196604 (KIT)
General InformationTrack Information on Google Maps || NewsDisaster Info.ResourceGoogle EarthGE AnimationAtom FeedGeoJSON
Detalied Best Track (Time Zone = UTC)
Year Month Day Hour Lat. Long. Pressure (hPa) Wind (kt) Class Image Chart
1966 6 20 00 8.7 150.8 1006 0 2 -- Chart
1966 6 20 06 8.9 149.7 1004 0 2 -- Chart
1966 6 20 12 9.1 148.5 1004 0 2 -- Chart
1966 6 20 18 9.1 147.4 1004 0 2 -- Chart
1966 6 21 00 9.1 146.4 1004 0 2 -- Chart
1966 6 21 06 9.1 145.0 1004 0 2 -- Chart
1966 6 21 12 9.1 143.7 1004 0 2 -- Chart
1966 6 21 18 9.1 142.2 1004 0 2 -- Chart
1966 6 22 00 9.2 140.6 1002 0 2 -- Chart
1966 6 22 06 9.4 139.2 1002 0 2 -- Chart
1966 6 22 12 9.5 138.0 1000 0 2 -- Chart
1966 6 22 18 9.8 137.2 1000 0 2 -- Chart
1966 6 23 00 10.5 136.5 1000 0 2 -- Chart
1966 6 23 06 10.9 136.2 1000 0 9 -- Chart
1966 6 23 12 11.1 135.5 1000 0 9 -- Chart
1966 6 23 18 11.7 134.8 998 0 9 -- Chart
1966 6 24 00 12.1 133.8 996 0 9 -- Chart
1966 6 24 06 12.5 133.0 990 0 9 -- Chart
1966 6 24 12 13.0 132.5 984 0 9 -- Chart
1966 6 24 18 13.5 132.0 980 0 9 -- Chart
1966 6 25 00 14.3 131.5 970 0 9 -- Chart
1966 6 25 06 15.4 131.0 960 0 9 -- Chart
1966 6 25 12 16.6 130.8 940 0 9 -- Chart
1966 6 25 18 17.5 130.8 925 0 9 -- Chart
1966 6 26 00 19.0 130.7 910 0 9 -- Chart
1966 6 26 06 20.5 130.7 880 0 9 -- Chart
1966 6 26 12 21.9 131.2 880 0 9 -- Chart
1966 6 26 18 23.6 131.9 910 0 9 -- Chart
1966 6 27 00 25.0 132.6 925 0 9 -- Chart
1966 6 27 06 26.6 133.2 940 0 9 -- Chart
1966 6 27 12 28.0 134.0 948 0 9 -- Chart
1966 6 27 18 29.6 135.3 953 0 9 -- Chart
1966 6 28 00 31.2 136.8 960 0 9 -- Chart
1966 6 28 06 33.0 139.0 965 0 9 -- Chart
1966 6 28 12 35.4 141.7 970 0 9 -- Chart
1966 6 28 18 38.5 144.5 972 0 9 -- Chart
1966 6 29 00 41.4 146.6 974 0 9 -- Chart
1966 6 29 06 42.6 148.0 974 0 6 -- Chart
1966 6 29 12 44.0 149.5 978 0 6 -- Chart
1966 6 29 18 45.0 150.5 980 0 6 -- Chart
1966 6 30 00 45.5 150.5 980 0 6 -- Chart
1966 6 30 06 46.0 151.0 984 0 6 -- Chart
1966 6 30 12 46.0 151.5 986 0 6 -- Chart
1966 6 30 18 45.5 152.0 986 0 6 -- Chart
1966 7 1 00 45.5 153.5 990 0 6 -- Chart
1966 7 1 06 45.5 155.0 990 0 6 -- Chart
1966 7 1 12 45.5 158.0 990 0 6 -- Chart
1966 7 1 18 45.5 161.0 990 0 6 -- Chart
1966 7 2 00 45.3 165.0 990 0 6 -- Chart
1966 7 2 06 45.0 168.5 990 0 6 -- Chart
1966 7 2 12 45.7 171.8 988 0 6 -- Chart
1966 7 2 18 46.8 174.3 986 0 6 -- Chart
1966 7 3 00 48.0 177.0 982 0 6 -- Chart
1966 7 3 06 49.0 177.8 978 0 6 -- Chart
1966 7 3 12 49.8 179.0 980 0 6 -- Chart
1966 7 3 18 50.5 180.5 980 0 6 -- Chart
Japan Meteorological Agency Best Track Data | Correction Date : 1990-10-17
< Typhoon 196603 1966 Season Typhoon 196605 >

Help